createdAt,value
2022-08-26T00:00:16.153Z,97678.28
2022-08-26T00:05:18.917Z,97678.63
2022-08-26T00:10:22.766Z,97670.00
2022-08-26T00:15:28.746Z,97666.38
2022-08-26T00:20:33.913Z,97657.25
2022-08-26T00:25:37.167Z,97668.63
2022-08-26T00:30:48.260Z,97666.38
2022-08-26T00:35:54.699Z,97667.88
2022-08-26T00:40:58.460Z,97662.97
2022-08-26T00:46:13.582Z,97665.50
2022-08-26T00:51:21.826Z,97663.88
2022-08-26T00:56:48.742Z,97659.97
2022-08-26T01:01:52.544Z,97664.00
2022-08-26T01:06:55.809Z,97676.03
2022-08-26T01:12:01.715Z,97673.16
2022-08-26T01:17:07.214Z,97676.56
2022-08-26T01:22:30.321Z,97672.34
2022-08-26T01:27:35.496Z,97667.81
2022-08-26T01:32:39.111Z,97673.31
2022-08-26T01:37:42.039Z,97674.56
2022-08-26T01:42:46.765Z,97665.28
2022-08-26T01:47:56.885Z,97669.16
2022-08-26T01:53:10.601Z,97670.66
2022-08-26T01:58:39.147Z,97673.44
2022-08-26T02:04:08.322Z,97675.16
2022-08-26T02:09:11.550Z,97673.09
2022-08-26T02:14:21.057Z,97679.88
2022-08-26T02:19:32.726Z,97681.38
2022-08-26T02:24:53.613Z,97682.22
2022-08-26T02:30:18.830Z,97686.75
2022-08-26T02:35:23.542Z,97681.44
2022-08-26T02:40:31.450Z,97676.69
2022-08-26T02:45:35.027Z,97667.25
2022-08-26T02:50:38.401Z,97671.09
2022-08-26T02:55:42.301Z,97667.06
2022-08-26T03:00:53.435Z,97669.28
2022-08-26T03:05:56.244Z,97656.88
2022-08-26T03:10:59.295Z,97656.44
2022-08-26T03:16:05.336Z,97651.13
2022-08-26T03:21:14.738Z,97650.88
2022-08-26T03:26:17.491Z,97647.19
2022-08-26T03:31:19.982Z,97655.81
2022-08-26T03:36:27.629Z,97651.38
2022-08-26T03:41:32.681Z,97651.91
2022-08-26T03:46:35.282Z,97655.69
2022-08-26T03:51:38.758Z,97657.13
2022-08-26T03:56:41.501Z,97658.56
2022-08-26T04:01:44.357Z,97655.31
2022-08-26T04:06:46.835Z,97659.00
2022-08-26T04:11:50.567Z,97658.22
2022-08-26T04:16:55.524Z,97662.41
2022-08-26T04:21:58.814Z,97657.50
2022-08-26T04:27:03.690Z,97654.38
2022-08-26T04:32:08.774Z,97639.28
2022-08-26T04:37:11.988Z,97641.94
2022-08-26T04:42:17.954Z,97648.50
2022-08-26T04:47:30.410Z,97645.56
2022-08-26T04:52:35.630Z,97660.78
2022-08-26T04:57:38.178Z,97654.47
2022-08-26T05:02:41.727Z,97653.09
2022-08-26T05:07:45.301Z,97656.97
2022-08-26T05:12:48.147Z,97662.94
2022-08-26T05:17:51.716Z,97666.06
2022-08-26T05:22:54.554Z,97661.69
2022-08-26T05:27:57.826Z,97666.84
2022-08-26T05:33:00.252Z,97664.75
2022-08-26T05:38:04.483Z,97661.56
2022-08-26T05:43:10.592Z,97681.44
2022-08-26T05:48:14.284Z,97674.81
2022-08-26T05:53:19.302Z,97681.34
2022-08-26T05:58:24.098Z,97686.75
2022-08-26T06:03:27.124Z,97688.25
2022-08-26T06:08:29.668Z,97694.59
2022-08-26T06:13:33.356Z,97690.69
2022-08-26T06:18:45.170Z,97690.25
2022-08-26T06:24:08.105Z,97694.88
2022-08-26T06:29:11.132Z,97703.66
2022-08-26T06:34:18.018Z,97696.31
2022-08-26T06:39:20.568Z,97703.44
2022-08-26T06:44:23.642Z,97704.59
2022-08-26T06:49:27.495Z,97706.66
2022-08-26T06:54:31.713Z,97710.09
2022-08-26T06:59:34.405Z,97714.28
2022-08-26T07:04:36.882Z,97707.53
2022-08-26T07:09:39.332Z,97708.97
2022-08-26T07:14:43.773Z,97709.66
2022-08-26T07:19:50.179Z,97709.19
2022-08-26T07:24:52.889Z,97715.72
2022-08-26T07:29:58.242Z,97706.31
2022-08-26T07:35:00.742Z,97718.84
2022-08-26T07:40:05.195Z,97718.75
2022-08-26T07:45:08.154Z,97718.13
2022-08-26T07:50:10.993Z,97714.47
2022-08-26T07:55:13.999Z,97716.88
2022-08-26T08:00:18.022Z,97724.75
2022-08-26T08:05:22.415Z,97728.38
2022-08-26T08:10:30.557Z,97727.16
2022-08-26T08:15:35.503Z,97730.03
2022-08-26T08:20:38.439Z,97725.25
2022-08-26T08:25:41.377Z,97726.44
2022-08-26T08:30:43.961Z,97724.16
2022-08-26T08:35:46.577Z,97722.78
2022-08-26T08:40:49.251Z,97719.94
2022-08-26T08:46:05.772Z,97709.53
2022-08-26T08:51:35.933Z,97713.31
2022-08-26T08:56:59.890Z,97710.94
2022-08-26T09:02:18.364Z,97698.72
2022-08-26T09:07:26.213Z,97698.28
2022-08-26T09:12:34.123Z,97698.84
2022-08-26T09:17:50.989Z,97696.44
2022-08-26T09:22:53.901Z,97695.84
2022-08-26T09:27:56.487Z,97693.75
2022-08-26T09:33:11.274Z,97689.97
2022-08-26T09:38:32.997Z,97680.97
2022-08-26T09:43:35.811Z,97672.88
2022-08-26T09:48:40.597Z,97681.78
2022-08-26T09:54:01.912Z,97664.03
2022-08-26T09:59:10.947Z,97646.59
2022-08-26T10:04:27.143Z,97637.56
2022-08-26T10:09:39.232Z,97642.81
2022-08-26T10:14:56.329Z,97636.97
2022-08-26T10:20:41.835Z,97621.63
2022-08-26T10:25:51.762Z,97617.66
2022-08-26T10:31:09.232Z,97608.75
2022-08-26T10:36:43.081Z,97616.81
2022-08-26T10:42:09.848Z,97613.81
2022-08-26T10:47:19.048Z,97614.91
2022-08-26T10:52:37.397Z,97596.72
2022-08-26T10:58:26.206Z,97591.09
2022-08-26T11:03:38.890Z,97591.63
2022-08-26T11:08:50.030Z,97577.63
2022-08-26T11:14:05.094Z,97572.84
2022-08-26T11:19:09.793Z,97559.53
2022-08-26T11:24:46.481Z,97558.38
2022-08-26T11:30:13.332Z,97553.00
2022-08-26T11:35:21.962Z,97549.72
2022-08-26T11:40:31.492Z,97547.44
2022-08-26T11:45:34.456Z,97549.22
2022-08-26T11:50:39.740Z,97545.09
2022-08-26T11:55:45.019Z,97547.47
2022-08-26T12:00:54.687Z,97542.72
2022-08-26T12:05:58.573Z,97547.31
2022-08-26T12:11:09.966Z,97552.38
2022-08-26T12:16:12.524Z,97536.56
2022-08-26T12:21:24.673Z,97539.81
2022-08-26T12:26:37.533Z,97541.50
2022-08-26T12:31:44.422Z,97536.63
2022-08-26T12:42:24.354Z,97522.03
2022-08-26T12:47:43.112Z,97523.03
2022-08-26T12:53:10.492Z,97509.97
2022-08-26T12:58:14.294Z,97504.25
2022-08-26T13:03:48.999Z,97500.47
2022-08-26T13:08:57.939Z,97493.19
2022-08-26T13:14:07.461Z,97482.84
2022-08-26T13:19:16.035Z,97493.69
2022-08-26T13:24:23.300Z,97478.06
2022-08-26T13:29:25.833Z,97479.25
2022-08-26T13:34:29.908Z,97480.16
2022-08-26T13:39:33.220Z,97493.19
2022-08-26T13:44:38.914Z,97495.50
2022-08-26T13:49:41.408Z,97488.25
2022-08-26T13:54:44.046Z,97500.53
2022-08-26T13:59:46.494Z,97503.69
2022-08-26T14:04:49.016Z,97492.50
2022-08-26T14:09:51.569Z,97464.84
2022-08-26T14:14:54.139Z,97466.72
2022-08-26T14:19:56.731Z,97460.56
2022-08-26T14:24:59.632Z,97470.53
2022-08-26T14:30:02.141Z,97470.50
2022-08-26T14:35:04.830Z,97464.59
2022-08-26T14:40:08.242Z,97466.00
2022-08-26T14:45:15.945Z,97471.84
2022-08-26T14:50:22.674Z,97476.53
2022-08-26T14:55:25.798Z,97478.44
2022-08-26T15:00:28.956Z,97463.88
2022-08-26T15:05:31.495Z,97452.34
2022-08-26T15:10:34.238Z,97444.88
2022-08-26T15:15:38.003Z,97469.56
2022-08-26T15:20:40.631Z,97477.22
2022-08-26T15:25:46.465Z,97478.00
2022-08-26T15:30:49.333Z,97486.97
2022-08-26T15:35:51.979Z,97494.88
2022-08-26T15:40:54.688Z,97483.22
2022-08-26T15:45:57.849Z,97512.69
2022-08-26T15:51:01.615Z,97495.59
2022-08-26T15:56:04.360Z,97519.69
2022-08-26T16:01:06.906Z,97534.34
2022-08-26T16:06:12.902Z,97535.19
2022-08-26T16:11:15.564Z,97567.81
2022-08-26T16:16:18.282Z,97599.00
2022-08-26T16:21:24.817Z,97622.78
2022-08-26T16:26:32.734Z,97640.63
2022-08-26T16:31:35.639Z,97657.63
2022-08-26T16:36:39.736Z,97649.94
2022-08-26T16:41:42.406Z,97651.66
2022-08-26T16:46:45.684Z,97655.13
2022-08-26T16:51:48.241Z,97641.88
2022-08-26T16:56:50.731Z,97633.75
2022-08-26T17:01:54.043Z,97637.84
2022-08-26T17:06:56.831Z,97650.72
2022-08-26T17:11:59.454Z,97638.44
2022-08-26T17:17:01.921Z,97631.78
2022-08-26T17:22:08.437Z,97605.03
2022-08-26T17:27:12.079Z,97581.81
2022-08-26T17:32:14.738Z,97586.75
2022-08-26T17:37:17.550Z,97584.16
2022-08-26T17:42:20.530Z,97598.41
2022-08-26T17:47:34.460Z,97591.25
2022-08-26T17:52:38.352Z,97596.72
2022-08-26T17:57:42.332Z,97598.66
2022-08-26T18:02:45.411Z,97597.19
2022-08-26T18:07:48.517Z,97590.06
2022-08-26T18:12:51.050Z,97584.91
2022-08-26T18:17:53.789Z,97585.81
2022-08-26T18:22:56.445Z,97590.19
2022-08-26T18:27:59.250Z,97598.75
2022-08-26T18:33:02.558Z,97619.53
2022-08-26T18:38:10.770Z,97664.44
2022-08-26T18:43:14.293Z,97716.25
2022-08-26T18:48:16.843Z,97744.47
2022-08-26T18:53:19.486Z,97749.00
2022-08-26T18:58:22.843Z,97735.78
2022-08-26T19:03:26.718Z,97725.78
2022-08-26T19:08:29.238Z,97722.81
2022-08-26T19:13:32.217Z,97724.88
2022-08-26T19:18:34.954Z,97713.59
2022-08-26T19:23:37.954Z,97700.50
2022-08-26T19:28:41.056Z,97717.28
2022-08-26T19:33:45.568Z,97721.78
2022-08-26T19:38:49.185Z,97719.84
2022-08-26T19:43:51.796Z,97716.56
2022-08-26T19:48:55.922Z,97718.47
2022-08-26T19:54:00.450Z,97733.22
2022-08-26T19:59:03.345Z,97727.72
2022-08-26T20:04:05.830Z,97733.19
2022-08-26T20:09:08.786Z,97735.69
2022-08-26T20:14:11.369Z,97737.28
2022-08-26T20:19:36.831Z,97742.31
2022-08-26T20:24:40.070Z,97733.50
2022-08-26T20:29:43.177Z,97728.50
2022-08-26T20:34:45.767Z,97721.94
2022-08-26T20:39:48.582Z,97736.72
2022-08-26T20:44:54.248Z,97730.16
2022-08-26T20:49:57.797Z,97719.19
2022-08-26T20:55:00.636Z,97720.34
2022-08-26T21:00:05.330Z,97730.41
2022-08-26T21:05:08.761Z,97741.84
2022-08-26T21:10:12.059Z,97753.31
2022-08-26T21:15:14.612Z,97745.13
2022-08-26T21:20:17.449Z,97750.56
2022-08-26T21:25:20.429Z,97746.16
2022-08-26T21:30:23.173Z,97745.81
2022-08-26T21:35:26.035Z,97743.34
2022-08-26T21:40:28.783Z,97750.63
2022-08-26T21:45:31.348Z,97752.47
2022-08-26T21:50:36.973Z,97755.22
2022-08-26T21:55:42.316Z,97766.00
2022-08-26T22:00:52.041Z,97759.91
2022-08-26T22:05:55.338Z,97751.47
2022-08-26T22:11:00.069Z,97750.91
2022-08-26T22:16:02.791Z,97757.50
2022-08-26T22:21:10.789Z,97761.75
2022-08-26T22:26:20.565Z,97762.09
2022-08-26T22:31:38.378Z,97764.31
2022-08-26T22:36:44.692Z,97768.31
2022-08-26T22:41:48.617Z,97779.81
2022-08-26T22:46:54.419Z,97786.09
2022-08-26T22:51:57.366Z,97788.41
2022-08-26T22:56:59.879Z,97801.53
2022-08-26T23:02:02.791Z,97795.00
2022-08-26T23:07:05.371Z,97787.50
2022-08-26T23:12:08.578Z,97782.75
2022-08-26T23:17:12.226Z,97780.50
2022-08-26T23:22:16.176Z,97783.25
2022-08-26T23:27:19.004Z,97769.41
2022-08-26T23:32:21.901Z,97772.97
2022-08-26T23:37:33.467Z,97753.44
2022-08-26T23:42:38.482Z,97756.78
2022-08-26T23:47:41.531Z,97754.88
2022-08-26T23:53:02.628Z,97759.00
2022-08-26T23:58:06.506Z,97750.50
